IE-0046 weather

Clonakilty Airstrip
County Cork, Ireland

Public forecast

Using degrees Celsius for public forecast. Weather courtesy of forecast.io.

Closest aviation weather report (METAR) to Clonakilty Airstrip

Closest report is Cork Airport, 20.4 nm (37.8 km) NE. Retrieved 2020/08/04 17:00 UTC (14 minutes ago):

EICK 041700Z 21019KT 9999 OVC008 17/15 Q1007 NOSIG

Closest aviation forecast (TAF) to Clonakilty Airstrip

Closest forecast is Cork Airport, 20.4 nm (37.8 km) NE. Retrieved 2020/08/04 12:10 UTC (5 hours ago):

TAF EICK 041100Z 0412/0512 22018G30KT 9999 BKN020 TEMPO 0412/0418 BKN009 BECMG 0418/0420 4000 -RADZ BKN009 TEMPO 0418/0510 2500 RADZ BKN004 BECMG 0420/0422 21015KT PROB40 TEMPO 0421/0506 0400 FG BKN002